Time;durP1;ratioP1;P1;durP2;ratioP2;P2;SDS_P1;SDS_P2;PMS_P1;PMS_P2;Temp;Humidity;BMP_temperature;BMP_pressure;BME280_temperature;BME280_humidity;BME280_pressure;Samples;Min_cycle;Max_cycle;Signal;HPM_P1;HPM_P2
2022/05/09 00:02:14;;;;;;;;;;;;;;;;;;5054230;28;1064;-71
2022/05/09 00:04:41;;;;;;;;;;;;;;;;;;5054007;28;1316;-71
2022/05/09 00:07:08;;;;;;;;;;;;;;;;;;5053617;28;1137;-71
2022/05/09 00:09:34;;;;;;;;;;;;;;;;;;5054070;28;1918;-71
2022/05/09 00:12:01;;;;;;;;;;;;;;;;;;5054102;28;969;-71
2022/05/09 00:14:27;;;;;;;;;;;;;;;;;;5054062;28;1391;-70
2022/05/09 00:16:53;;;;;;;;;;;;;;;;;;5053725;28;1079;-71
2022/05/09 00:19:20;;;;;;;;;;;;;;;;;;5054099;28;802;-71
2022/05/09 00:21:47;;;;;;;;;;;;;;;;;;5052547;28;1309;-71
2022/05/09 00:24:17;;;;;;;;;;;;;;;;;;5052465;28;1313;-71
2022/05/09 00:26:48;;;;;;;;;;;;;;;;;;5053628;28;798;-71
2022/05/09 00:29:15;;;;;;;;;;;;;;;;;;5052358;28;2416;-71
2022/05/09 00:31:43;;;;;;;;;;;;;;;;;;5053595;28;965;-71
2022/05/09 00:34:10;;;;;;;;;;;;;;;;;;5053555;28;1306;-70
2022/05/09 00:36:36;;;;;;;;;;;;;;;;;;5053094;28;1475;-71
2022/05/09 00:39:03;;;;;;;;;;;;;;;;;;5053625;28;1162;-71
2022/05/09 00:41:34;;;;;;;;;;;;;;;;;;5053640;28;1055;-70
2022/05/09 00:44:01;;;;;;;;;;;;;;;;;;5052934;28;1319;-71
2022/05/09 00:46:29;;;;;;;;;;;;;;;;;;5053175;28;936;-70
2022/05/09 00:48:55;;;;;;;;;;;;;;;;;;5053353;28;1910;-71
2022/05/09 00:51:23;;;;;;;;;;;;;;;;;;5053534;28;1109;-72
2022/05/09 00:53:49;;;;;;;;;;;;;;;;;;5053082;28;1383;-70
2022/05/09 00:56:17;;;;;;;;;;;;;;;;;;5050699;28;1290;-70
2022/05/09 00:58:46;;;;;;;;;;;;;;;;;;5051265;28;1300;-70
2022/05/09 01:01:12;;;;;;;;;;;;;;;;;;5052869;28;1115;-71
2022/05/09 01:03:40;;;;;;;;;;;;;;;;;;5051761;28;1317;-71
2022/05/09 01:06:06;;;;;;;;;;;;;;;;;;5052863;28;1074;-69
2022/05/09 01:08:33;;;;;;;;;;;;;;;;;;5051612;28;1977;-71
2022/05/09 01:10:59;;;;;;;;;;;;;;;;;;5052842;28;961;-69
2022/05/09 01:13:25;;;;;;;;;;;;;;;;;;5052954;28;1380;-71
2022/05/09 01:15:54;;;;;;;;;;;;;;;;;;5052629;28;1115;-71
2022/05/09 01:18:21;;;;;;;;;;;;;;;;;;5053078;28;1110;-71
2022/05/09 01:20:47;;;;;;;;;;;;;;;;;;5053264;28;1185;-72
2022/05/09 01:23:15;;;;;;;;;;;;;;;;;;5052861;28;1289;-70
2022/05/09 01:25:41;;;;;;;;;;;;;;;;;;5044418;28;2053;-70
2022/05/09 01:28:09;;;;;;;;;;;;;;;;;;5032533;28;1914;-71
2022/05/09 01:30:36;;;;;;;;;;;;;;;;;;5032583;28;1062;-70
2022/05/09 01:33:03;;;;;;;;;;;;;;;;;;5032516;28;1298;-72
2022/05/09 01:35:38;;;;;;;;;;;;;;;;;;5032684;28;1067;-70
2022/05/09 01:38:05;;;;;;;;;;;;;;;;;;5035166;28;1138;-70
2022/05/09 01:40:33;;;;;;;;;;;;;;;;;;5052433;28;1079;-70
2022/05/09 01:42:59;;;;;;;;;;;;;;;;;;5052067;28;1340;-70
2022/05/09 01:45:25;;;;;;;;;;;;;;;;;;5052455;28;822;-70
2022/05/09 01:50:35;;;;;;;;;;;;;;;;;;5052531;28;992;-70
2022/05/09 01:53:01;;;;;;;;;;;;;;;;;;5052434;28;1408;-70
2022/05/09 01:55:28;;;;;;;;;;;;;;;;;;5052107;28;923;-70
2022/05/09 01:57:55;;;;;;;;;;;;;;;;;;5051901;28;992;-70
2022/05/09 02:00:22;;;;;;;;;;;;;;;;;;5052186;28;1110;-70
2022/05/09 02:02:48;;;;;;;;;;;;;;;;;;5051924;28;1383;-71
2022/05/09 02:05:14;;;;;;;;;;;;;;;;;;5052014;28;988;-70
2022/05/09 02:07:40;;;;;;;;;;;;;;;;;;5051492;28;1133;-71
2022/05/09 02:10:07;;;;;;;;;;;;;;;;;;5052067;28;1981;-71
2022/05/09 02:12:33;;;;;;;;;;;;;;;;;;5051385;28;1343;-71
2022/05/09 02:15:01;;;;;;;;;;;;;;;;;;5051649;28;772;-71
2022/05/09 02:17:29;;;;;;;;;;;;;;;;;;5051662;28;1067;-71
2022/05/09 02:19:55;;;;;;;;;;;;;;;;;;5051556;28;1082;-71
2022/05/09 02:22:21;;;;;;;;;;;;;;;;;;5051649;28;821;-71
2022/05/09 02:24:47;;;;;;;;;;;;;;;;;;5051345;28;1380;-71
2022/05/09 02:27:14;;;;;;;;;;;;;;;;;;5051007;28;1506;-71
2022/05/09 02:29:42;;;;;;;;;;;;;;;;;;5051150;28;1922;-71
2022/05/09 02:32:11;;;;;;;;;;;;;;;;;;5051355;28;1107;-71
2022/05/09 02:34:38;;;;;;;;;;;;;;;;;;5051432;28;1393;-70
2022/05/09 02:37:04;;;;;;;;;;;;;;;;;;5051181;28;1103;-71
2022/05/09 02:39:30;;;;;;;;;;;;;;;;;;5051349;28;1186;-70
2022/05/09 02:41:58;;;;;;;;;;;;;;;;;;5051193;28;1080;-70
2022/05/09 02:44:24;;;;;;;;;;;;;;;;;;5051062;28;1390;-70
2022/05/09 02:46:50;;;;;;;;;;;;;;;;;;5050949;28;1071;-71
2022/05/09 02:49:19;;;;;;;;;;;;;;;;;;5050778;28;1971;-71
2022/05/09 02:51:46;;;;;;;;;;;;;;;;;;5050990;28;897;-71
2022/05/09 02:54:13;;;;;;;;;;;;;;;;;;5051067;28;1269;-71
2022/05/09 02:56:39;;;;;;;;;;;;;;;;;;5050828;28;921;-71
2022/05/09 02:59:05;;;;;;;;;;;;;;;;;;5050942;28;1083;-71
2022/05/09 03:01:31;;;;;;;;;;;;;;;;;;5051086;28;1032;-71
2022/05/09 03:06:43;;;;;;;;;;;;;;;;;;5050307;28;972;-71
2022/05/09 03:09:09;;;;;;;;;;;;;;;;;;5050860;28;1914;-71
2022/05/09 03:11:36;;;;;;;;;;;;;;;;;;5049523;28;846;-71
2022/05/09 03:14:02;;;;;;;;;;;;;;;;;;5050675;28;1294;-71
2022/05/09 03:16:28;;;;;;;;;;;;;;;;;;5050652;28;932;-71
2022/05/09 03:18:55;;;;;;;;;;;;;;;;;;5050706;28;1054;-71
2022/05/09 03:21:21;;;;;;;;;;;;;;;;;;5050266;28;921;-71
2022/05/09 03:23:49;;;;;;;;;;;;;;;;;;5050574;28;1298;-72
2022/05/09 03:26:15;;;;;;;;;;;;;;;;;;5050383;28;1087;-70
2022/05/09 03:28:44;;;;;;;;;;;;;;;;;;5050269;28;1918;-71
2022/05/09 03:31:12;;;;;;;;;;;;;;;;;;5049190;28;1119;-71
2022/05/09 03:33:39;;;;;;;;;;;;;;;;;;5050553;28;1265;-71
2022/05/09 03:36:06;;;;;;;;;;;;;;;;;;5050549;28;925;-68
2022/05/09 03:38:32;;;;;;;;;;;;;;;;;;5043763;28;1205;-71
2022/05/09 03:40:59;;;;;;;;;;;;;;;;;;5030487;28;787;-71
2022/05/09 03:43:25;;;;;;;;;;;;;;;;;;5032362;28;1783;-71
2022/05/09 03:45:52;;;;;;;;;;;;;;;;;;5038245;28;1642;-71
2022/05/09 03:48:18;;;;;;;;;;;;;;;;;;5037986;28;1142;-71
2022/05/09 03:50:44;;;;;;;;;;;;;;;;;;5050379;28;1976;-71
2022/05/09 03:53:11;;;;;;;;;;;;;;;;;;5050414;28;1288;-71
2022/05/09 03:55:37;;;;;;;;;;;;;;;;;;5050365;28;1141;-71
2022/05/09 03:58:05;;;;;;;;;;;;;;;;;;5050099;28;901;-71
2022/05/09 04:00:32;;;;;;;;;;;;;;;;;;5050243;28;1155;-71
2022/05/09 04:02:58;;;;;;;;;;;;;;;;;;5050420;28;1310;-71
2022/05/09 04:05:30;;;;;;;;;;;;;;;;;;5051520;28;948;-71
2022/05/09 04:07:57;;;;;;;;;;;;;;;;;;5049663;28;1151;-71
2022/05/09 04:10:24;;;;;;;;;;;;;;;;;;5050161;28;1973;-71
2022/05/09 04:12:50;;;;;;;;;;;;;;;;;;5048836;28;1325;-71
2022/05/09 04:18:01;;;;;;;;;;;;;;;;;;5048849;28;858;-71
2022/05/09 04:20:29;;;;;;;;;;;;;;;;;;5050252;28;933;-71
2022/05/09 04:22:56;;;;;;;;;;;;;;;;;;5049829;28;1306;-71
2022/05/09 04:25:22;;;;;;;;;;;;;;;;;;5048680;28;1123;-71
2022/05/09 04:27:51;;;;;;;;;;;;;;;;;;5046953;28;1569;-71
2022/05/09 04:30:18;;;;;;;;;;;;;;;;;;5047194;28;1906;-71
2022/05/09 04:32:44;;;;;;;;;;;;;;;;;;5051106;28;1987;-70
2022/05/09 04:35:17;;;;;;;;;;;;;;;;;;5050477;28;1212;-70
2022/05/09 04:37:45;;;;;;;;;;;;;;;;;;5050935;28;1699;-71
2022/05/09 04:40:12;;;;;;;;;;;;;;;;;;5053762;28;1001;-70
2022/05/09 04:42:39;;;;;;;;;;;;;;;;;;5051116;28;1491;-69
2022/05/09 04:45:05;;;;;;;;;;;;;;;;;;5051801;28;1362;-69
2022/05/09 04:47:33;;;;;;;;;;;;;;;;;;5052160;28;1564;-69
2022/05/09 04:49:59;;;;;;;;;;;;;;;;;;5035342;28;1922;-69
2022/05/09 04:52:26;;;;;;;;;;;;;;;;;;5032421;28;1106;-69
2022/05/09 04:54:52;;;;;;;;;;;;;;;;;;5051499;28;1325;-70
2022/05/09 04:57:19;;;;;;;;;;;;;;;;;;5053119;28;1056;-70
2022/05/09 04:59:45;;;;;;;;;;;;;;;;;;5053403;28;1249;-69
2022/05/09 05:02:11;;;;;;;;;;;;;;;;;;5052993;28;1016;-69
2022/05/09 05:04:39;;;;;;;;;;;;;;;;;;5053326;28;1370;-69
2022/05/09 05:07:06;;;;;;;;;;;;;;;;;;5053105;28;1063;-70
2022/05/09 05:09:32;;;;;;;;;;;;;;;;;;5053253;28;1910;-70
2022/05/09 05:11:58;;;;;;;;;;;;;;;;;;5053343;28;1075;-69
2022/05/09 05:14:24;;;;;;;;;;;;;;;;;;5053042;28;1306;-69
2022/05/09 05:17:00;;;;;;;;;;;;;;;;;;5052955;28;1122;-69
2022/05/09 05:19:26;;;;;;;;;;;;;;;;;;5053273;28;1027;-69
2022/05/09 05:21:53;;;;;;;;;;;;;;;;;;5052805;28;1138;-70
2022/05/09 05:24:20;;;;;;;;;;;;;;;;;;5051543;28;1425;-69
2022/05/09 05:26:46;;;;;;;;;;;;;;;;;;5050124;28;1478;-70
2022/05/09 05:29:13;;;;;;;;;;;;;;;;;;5051169;28;1973;-70
2022/05/09 05:31:39;;;;;;;;;;;;;;;;;;5052716;28;1581;-70
2022/05/09 05:34:05;;;;;;;;;;;;;;;;;;5050866;28;1405;-69
2022/05/09 05:36:31;;;;;;;;;;;;;;;;;;5048108;28;1201;-69
2022/05/09 05:38:59;;;;;;;;;;;;;;;;;;5026016;28;1275;-69
2022/05/09 05:41:25;;;;;;;;;;;;;;;;;;5048603;28;1313;-69
2022/05/09 05:43:52;;;;;;;;;;;;;;;;;;5050246;28;1334;-69
2022/05/09 05:46:19;;;;;;;;;;;;;;;;;;5050375;28;1364;-69
2022/05/09 05:48:45;;;;;;;;;;;;;;;;;;5050704;28;1620;-69
2022/05/09 05:51:12;;;;;;;;;;;;;;;;;;5050846;28;1918;-69
2022/05/09 05:53:38;;;;;;;;;;;;;;;;;;5051263;28;1501;-70
2022/05/09 05:56:06;;;;;;;;;;;;;;;;;;5036625;28;1340;-69
2022/05/09 05:58:32;;;;;;;;;;;;;;;;;;5051721;28;1632;-69
2022/05/09 06:00:58;;;;;;;;;;;;;;;;;;5051830;28;1068;-70
2022/05/09 06:03:24;;;;;;;;;;;;;;;;;;5052165;28;1306;-70
2022/05/09 06:05:51;;;;;;;;;;;;;;;;;;5052090;28;1130;-70
2022/05/09 06:08:17;;;;;;;;;;;;;;;;;;5045496;28;1339;-70
2022/05/09 06:10:43;;;;;;;;;;;;;;;;;;5051206;28;2016;-70
2022/05/09 06:13:11;;;;;;;;;;;;;;;;;;5048221;28;1418;-68
2022/05/09 06:15:37;;;;;;;;;;;;;;;;;;5036411;28;1433;-70
2022/05/09 06:18:04;;;;;;;;;;;;;;;;;;5047814;28;1438;-69
2022/05/09 06:20:31;;;;;;;;;;;;;;;;;;5042162;28;1394;-70
2022/05/09 06:22:59;;;;;;;;;;;;;;;;;;5042494;28;1418;-70
2022/05/09 06:25:26;;;;;;;;;;;;;;;;;;5049348;28;1232;-71
2022/05/09 06:27:52;;;;;;;;;;;;;;;;;;5049495;28;1488;-70
2022/05/09 06:30:20;;;;;;;;;;;;;;;;;;5049776;28;1918;-71
2022/05/09 06:32:46;;;;;;;;;;;;;;;;;;5042190;28;1411;-70
2022/05/09 06:35:14;;;;;;;;;;;;;;;;;;5064420;28;2234;-71
2022/05/09 06:37:40;;;;;;;;;;;;;;;;;;5041176;28;1386;-71
2022/05/09 06:40:07;;;;;;;;;;;;;;;;;;5048240;28;1396;-71
2022/05/09 06:42:35;;;;;;;;;;;;;;;;;;5048219;28;1604;-71
2022/05/09 06:45:01;;;;;;;;;;;;;;;;;;5045433;28;1209;-70
2022/05/09 06:47:28;;;;;;;;;;;;;;;;;;5042014;28;1740;-71
2022/05/09 06:49:58;;;;;;;;;;;;;;;;;;5041722;28;1914;-71
2022/05/09 06:52:24;;;;;;;;;;;;;;;;;;5049312;28;1946;-70
2022/05/09 06:54:50;;;;;;;;;;;;;;;;;;5031451;28;1420;-70
2022/05/09 06:57:17;;;;;;;;;;;;;;;;;;5031899;28;1182;-70
2022/05/09 06:59:43;;;;;;;;;;;;;;;;;;5040914;28;1757;-70
2022/05/09 07:02:14;;;;;;;;;;;;;;;;;;5042538;28;1653;-71
2022/05/09 07:04:41;;;;;;;;;;;;;;;;;;5043204;28;1369;-70
2022/05/09 07:07:07;;;;;;;;;;;;;;;;;;5030272;28;1075;-70
2022/05/09 07:09:33;;;;;;;;;;;;;;;;;;5029920;28;1990;-71
2022/05/09 07:12:00;;;;;;;;;;;;;;;;;;5030406;28;1076;-71
2022/05/09 07:14:26;;;;;;;;;;;;;;;;;;5030233;28;1386;-70
2022/05/09 07:16:52;;;;;;;;;;;;;;;;;;5030369;28;1067;-70
2022/05/09 07:19:18;;;;;;;;;;;;;;;;;;5030469;28;938;-70
2022/05/09 07:21:46;;;;;;;;;;;;;;;;;;5030226;28;1059;-71
2022/05/09 07:24:12;;;;;;;;;;;;;;;;;;5029905;28;1472;-71
2022/05/09 07:26:39;;;;;;;;;;;;;;;;;;5029995;28;902;-69
2022/05/09 07:29:05;;;;;;;;;;;;;;;;;;5030122;28;1080;-70
2022/05/09 07:31:32;;;;;;;;;;;;;;;;;;5030033;28;1914;-71
2022/05/09 07:33:58;;;;;;;;;;;;;;;;;;5030330;28;1384;-71
2022/05/09 07:36:24;;;;;;;;;;;;;;;;;;5029756;28;1134;-72
2022/05/09 07:38:52;;;;;;;;;;;;;;;;;;5045986;28;1167;-72
2022/05/09 07:41:18;;;;;;;;;;;;;;;;;;5049889;28;936;-71
2022/05/09 07:43:44;;;;;;;;;;;;;;;;;;5049902;28;1379;-71
2022/05/09 07:46:10;;;;;;;;;;;;;;;;;;5049865;28;889;-71
2022/05/09 07:48:38;;;;;;;;;;;;;;;;;;5049900;28;1086;-71
2022/05/09 07:51:04;;;;;;;;;;;;;;;;;;5050030;28;1910;-70
2022/05/09 07:53:31;;;;;;;;;;;;;;;;;;5043404;28;1518;-71
2022/05/09 07:56:02;;;;;;;;;;;;;;;;;;5046267;28;1317;-71
2022/05/09 07:58:29;;;;;;;;;;;;;;;;;;5046823;28;1435;-70
2022/05/09 08:00:58;;;;;;;;;;;;;;;;;;5047163;28;1441;-72
2022/05/09 08:03:25;;;;;;;;;;;;;;;;;;5049238;28;1328;-72
2022/05/09 08:05:56;;;;;;;;;;;;;;;;;;5047970;28;1611;-72
2022/05/09 08:08:23;;;;;;;;;;;;;;;;;;5051318;28;1630;-72
2022/05/09 08:10:49;;;;;;;;;;;;;;;;;;5049743;28;1965;-70
2022/05/09 08:13:17;;;;;;;;;;;;;;;;;;5049435;28;1302;-71
2022/05/09 08:15:45;;;;;;;;;;;;;;;;;;5047020;28;1764;-72
2022/05/09 08:18:13;;;;;;;;;;;;;;;;;;5033168;28;1181;-71
2022/05/09 08:20:40;;;;;;;;;;;;;;;;;;5033555;28;894;-72
2022/05/09 08:23:08;;;;;;;;;;;;;;;;;;5051537;28;1401;-70
2022/05/09 08:25:36;;;;;;;;;;;;;;;;;;5046910;28;1612;-71
2022/05/09 08:28:02;;;;;;;;;;;;;;;;;;5047946;28;1170;-72
2022/05/09 08:30:32;;;;;;;;;;;;;;;;;;5052958;28;1922;-72
2022/05/09 08:32:58;;;;;;;;;;;;;;;;;;5053354;28;1330;-72
2022/05/09 08:35:25;;;;;;;;;;;;;;;;;;5052904;28;1063;-71
2022/05/09 08:37:51;;;;;;;;;;;;;;;;;;5052594;28;953;-72
2022/05/09 08:40:20;;;;;;;;;;;;;;;;;;5051439;28;945;-72
2022/05/09 08:42:48;;;;;;;;;;;;;;;;;;5054764;28;1448;-71
2022/05/09 08:45:19;;;;;;;;;;;;;;;;;;5045699;28;1521;-72
2022/05/09 08:48:06;;;;;;;;;;;;;;;;;;5052700;28;1423;-71
2022/05/09 08:50:36;;;;;;;;;;;;;;;;;;5032385;28;1914;-73
2022/05/09 08:53:02;;;;;;;;;;;;;;;;;;5038056;28;1779;-73
2022/05/09 08:55:32;;;;;;;;;;;;;;;;;;5039554;28;1296;-72
2022/05/09 08:58:00;;;;;;;;;;;;;;;;;;5040061;28;1838;-73
2022/05/09 09:00:29;;;;;;;;;;;;;;;;;;5046021;28;1490;-72
2022/05/09 09:02:55;;;;;;;;;;;;;;;;;;5051350;28;1841;-70
2022/05/09 09:05:23;;;;;;;;;;;;;;;;;;5046914;28;1830;-72
2022/05/09 09:07:53;;;;;;;;;;;;;;;;;;5046324;28;1932;-72
2022/05/09 09:10:22;;;;;;;;;;;;;;;;;;5052243;28;1999;-72
2022/05/09 09:12:51;;;;;;;;;;;;;;;;;;5050898;28;1365;-72
2022/05/09 09:15:22;;;;;;;;;;;;;;;;;;5050618;28;1928;-72
2022/05/09 09:18:06;;;;;;;;;;;;;;;;;;5037897;28;1604;-71
2022/05/09 09:20:33;;;;;;;;;;;;;;;;;;5043859;28;1801;-72
2022/05/09 09:23:05;;;;;;;;;;;;;;;;;;5043882;28;1382;-72
2022/05/09 09:25:34;;;;;;;;;;;;;;;;;;5052443;28;770;-72
2022/05/09 09:28:01;;;;;;;;;;;;;;;;;;5052342;28;1064;-72
2022/05/09 09:30:29;;;;;;;;;;;;;;;;;;5052178;28;1918;-72
2022/05/09 09:32:57;;;;;;;;;;;;;;;;;;5052097;28;1407;-71
2022/05/09 09:35:26;;;;;;;;;;;;;;;;;;5045303;28;1229;-73
2022/05/09 09:37:55;;;;;;;;;;;;;;;;;;5032059;28;1132;-72
2022/05/09 09:40:22;;;;;;;;;;;;;;;;;;5030864;28;1206;-72
2022/05/09 09:42:51;;;;;;;;;;;;;;;;;;5036290;28;1974;-71
2022/05/09 09:45:20;;;;;;;;;;;;;;;;;;5043516;28;1955;-73
2022/05/09 09:47:46;;;;;;;;;;;;;;;;;;5040033;28;1114;-72
2022/05/09 09:50:15;;;;;;;;;;;;;;;;;;5040189;28;1106;-72
2022/05/09 09:52:41;;;;;;;;;;;;;;;;;;5031630;28;2011;-72
2022/05/09 09:55:08;;;;;;;;;;;;;;;;;;5033393;28;1131;-72
2022/05/09 09:57:36;;;;;;;;;;;;;;;;;;5051586;28;908;-72
2022/05/09 10:00:13;;;;;;;;;;;;;;;;;;5051692;28;1059;-72
2022/05/09 10:02:39;;;;;;;;;;;;;;;;;;5042702;28;1409;-72
2022/05/09 10:05:10;;;;;;;;;;;;;;;;;;5062082;22;4123;-68
2022/05/09 10:07:38;;;;;;;;;;;;;;;;;;5049883;28;1723;-72
2022/05/09 10:10:10;;;;;;;;;;;;;;;;;;5051036;28;1094;-73
2022/05/09 10:12:38;;;;;;;;;;;;;;;;;;5050913;28;1918;-71
2022/05/09 10:15:21;;;;;;;;;;;;;;;;;;5053960;28;1423;-70
2022/05/09 10:17:47;;;;;;;;;;;;;;;;;;5060956;28;1667;-72
2022/05/09 10:20:24;;;;;;;;;;;;;;;;;;5065620;28;1354;-72
2022/05/09 10:25:37;;;;;;;;;;;;;;;;;;5057658;28;1534;-71
2022/05/09 10:28:05;;;;;;;;;;;;;;;;;;5050791;28;1150;-71
2022/05/09 10:30:33;;;;;;;;;;;;;;;;;;5052763;28;1589;-71
2022/05/09 10:33:01;;;;;;;;;;;;;;;;;;5064597;28;1355;-71
2022/05/09 10:35:27;;;;;;;;;;;;;;;;;;5051041;28;1328;-72
2022/05/09 10:37:55;;;;;;;;;;;;;;;;;;5052711;28;949;-72
2022/05/09 10:40:22;;;;;;;;;;;;;;;;;;5056089;28;1051;-71
2022/05/09 10:42:50;;;;;;;;;;;;;;;;;;5050440;28;934;-71
2022/05/09 10:45:19;;;;;;;;;;;;;;;;;;5063680;28;1411;-71
2022/05/09 10:47:46;;;;;;;;;;;;;;;;;;5067146;28;1419;-72
2022/05/09 10:50:13;;;;;;;;;;;;;;;;;;5058997;28;1379;-72
2022/05/09 10:52:41;;;;;;;;;;;;;;;;;;5050535;28;1977;-71
2022/05/09 10:55:12;;;;;;;;;;;;;;;;;;5070650;28;1329;-72
2022/05/09 10:57:40;;;;;;;;;;;;;;;;;;5069482;28;1329;-72
2022/05/09 11:00:09;;;;;;;;;;;;;;;;;;5059282;28;1146;-72
2022/05/09 11:02:37;;;;;;;;;;;;;;;;;;5053360;28;1474;-72
2022/05/09 11:05:04;;;;;;;;;;;;;;;;;;5058329;28;1377;-70
2022/05/09 11:07:32;;;;;;;;;;;;;;;;;;5050648;28;1454;-72
2022/05/09 11:10:01;;;;;;;;;;;;;;;;;;5060262;28;1420;-71
2022/05/09 11:12:37;;;;;;;;;;;;;;;;;;5068560;28;1988;-72
2022/05/09 11:15:06;;;;;;;;;;;;;;;;;;5062126;28;1795;-72
2022/05/09 11:17:43;;;;;;;;;;;;;;;;;;5060225;28;1358;-72
2022/05/09 11:20:11;;;;;;;;;;;;;;;;;;5070100;28;1106;-72
2022/05/09 11:22:37;;;;;;;;;;;;;;;;;;5062632;28;1477;-72
2022/05/09 11:25:08;;;;;;;;;;;;;;;;;;5059468;28;1459;-72
2022/05/09 11:27:42;;;;;;;;;;;;;;;;;;5064501;28;1305;-72
2022/05/09 11:30:29;;;;;;;;;;;;;;;;;;5068147;28;1414;-72
2022/05/09 11:32:59;;;;;;;;;;;;;;;;;;5063814;28;1979;-72
2022/05/09 11:35:30;;;;;;;;;;;;;;;;;;5068009;28;1470;-73
2022/05/09 11:37:59;;;;;;;;;;;;;;;;;;5053156;28;1317;-72
2022/05/09 11:40:27;;;;;;;;;;;;;;;;;;5060264;28;1569;-72
2022/05/09 11:45:44;;;;;;;;;;;;;;;;;;5059008;28;1519;-71
2022/05/09 11:48:14;;;;;;;;;;;;;;;;;;5063016;28;1237;-72
2022/05/09 11:50:42;;;;;;;;;;;;;;;;;;5069778;28;1119;-72
2022/05/09 11:53:09;;;;;;;;;;;;;;;;;;5068993;28;1918;-72
2022/05/09 11:55:35;;;;;;;;;;;;;;;;;;5071054;28;1527;-72
2022/05/09 11:58:01;;;;;;;;;;;;;;;;;;5070801;28;925;-72
2022/05/09 12:00:47;;;;;;;;;;;;;;;;;;5060380;28;1368;-71
2022/05/09 12:03:15;;;;;;;;;;;;;;;;;;5055807;28;1593;-71
2022/05/09 12:05:56;;;;;;;;;;;;;;;;;;5054783;28;1308;-71
2022/05/09 12:08:22;;;;;;;;;;;;;;;;;;5062834;28;1395;-71
2022/05/09 12:10:51;;;;;;;;;;;;;;;;;;5057372;28;1363;-71
2022/05/09 12:13:32;;;;;;;;;;;;;;;;;;5060201;28;2005;-71
2022/05/09 12:15:59;;;;;;;;;;;;;;;;;;5066558;28;1907;-71
2022/05/09 12:18:27;;;;;;;;;;;;;;;;;;5060555;28;1127;-72
2022/05/09 12:21:00;;;;;;;;;;;;;;;;;;5068341;28;1081;-71
2022/05/09 12:23:42;;;;;;;;;;;;;;;;;;5069874;28;909;-72
2022/05/09 12:26:09;;;;;;;;;;;;;;;;;;5067921;28;1579;-70
2022/05/09 12:28:40;;;;;;;;;;;;;;;;;;5068341;28;1544;-73
2022/05/09 12:31:09;;;;;;;;;;;;;;;;;;5059613;28;1498;-72
2022/05/09 12:33:38;;;;;;;;;;;;;;;;;;5063682;28;1922;-73
2022/05/09 12:36:06;;;;;;;;;;;;;;;;;;5065664;28;1382;-72
2022/05/09 12:38:35;;;;;;;;;;;;;;;;;;5059507;28;1771;-73
2022/05/09 12:41:03;;;;;;;;;;;;;;;;;;5064562;28;1457;-72
2022/05/09 12:43:30;;;;;;;;;;;;;;;;;;5057689;28;1775;-71
2022/05/09 12:45:57;;;;;;;;;;;;;;;;;;5063689;28;1771;-73
2022/05/09 12:48:23;;;;;;;;;;;;;;;;;;5061428;28;1715;-73
2022/05/09 12:50:51;;;;;;;;;;;;;;;;;;5062289;28;1993;-73
2022/05/09 12:53:17;;;;;;;;;;;;;;;;;;5056078;28;1925;-72
2022/05/09 12:55:55;;;;;;;;;;;;;;;;;;5057595;28;2168;-73
2022/05/09 12:58:25;;;;;;;;;;;;;;;;;;5061032;28;1549;-73
2022/05/09 13:00:55;;;;;;;;;;;;;;;;;;5056631;28;1639;-72
2022/05/09 13:03:21;;;;;;;;;;;;;;;;;;5062548;28;1548;-72
2022/05/09 13:05:48;;;;;;;;;;;;;;;;;;5065752;28;1478;-73
2022/05/09 13:08:15;;;;;;;;;;;;;;;;;;5060663;28;1275;-73
2022/05/09 13:10:46;;;;;;;;;;;;;;;;;;5070274;28;1877;-73
2022/05/09 13:13:14;;;;;;;;;;;;;;;;;;5062077;28;1970;-73
2022/05/09 13:15:42;;;;;;;;;;;;;;;;;;5069574;28;1730;-72
2022/05/09 13:18:09;;;;;;;;;;;;;;;;;;5061995;28;1228;-72
2022/05/09 13:20:38;;;;;;;;;;;;;;;;;;5060980;28;1795;-73
2022/05/09 13:23:05;;;;;;;;;;;;;;;;;;5055352;28;1213;-73
2022/05/09 13:25:33;;;;;;;;;;;;;;;;;;5072080;28;1367;-73
2022/05/09 13:27:59;;;;;;;;;;;;;;;;;;5068934;28;1639;-73
2022/05/09 13:30:26;;;;;;;;;;;;;;;;;;5056296;28;1762;-72
2022/05/09 13:32:52;;;;;;;;;;;;;;;;;;5059975;28;2031;-73
2022/05/09 13:35:20;;;;;;;;;;;;;;;;;;5059354;28;1424;-73
2022/05/09 13:37:49;;;;;;;;;;;;;;;;;;5051857;28;1044;-73
2022/05/09 13:40:18;;;;;;;;;;;;;;;;;;5054743;28;1904;-71
2022/05/09 13:42:45;;;;;;;;;;;;;;;;;;5045905;28;1260;-73
2022/05/09 13:45:13;;;;;;;;;;;;;;;;;;5067847;28;1573;-72
2022/05/09 13:47:43;;;;;;;;;;;;;;;;;;5060478;28;1529;-73
2022/05/09 13:50:11;;;;;;;;;;;;;;;;;;5066566;28;1615;-73
2022/05/09 13:52:38;;;;;;;;;;;;;;;;;;5062693;28;1914;-73
2022/05/09 13:55:05;;;;;;;;;;;;;;;;;;5061777;28;1419;-73
2022/05/09 13:57:35;;;;;;;;;;;;;;;;;;5070802;28;1822;-73
2022/05/09 14:00:06;;;;;;;;;;;;;;;;;;5055193;28;1174;-72
2022/05/09 14:02:42;;;;;;;;;;;;;;;;;;5054302;28;890;-72
2022/05/09 14:05:09;;;;;;;;;;;;;;;;;;5052912;28;1549;-72
2022/05/09 14:07:41;;;;;;;;;;;;;;;;;;5056214;28;1496;-72
2022/05/09 14:10:08;;;;;;;;;;;;;;;;;;5054515;28;1123;-72
2022/05/09 14:12:35;;;;;;;;;;;;;;;;;;5063556;28;1918;-72
2022/05/09 14:15:03;;;;;;;;;;;;;;;;;;5067052;28;1824;-70
2022/05/09 14:17:31;;;;;;;;;;;;;;;;;;5069408;28;1552;-72
2022/05/09 14:19:58;;;;;;;;;;;;;;;;;;5065865;28;1464;-72
2022/05/09 14:22:24;;;;;;;;;;;;;;;;;;5070798;28;1075;-72
2022/05/09 14:30:20;;;;;;;;;;;;;;;;;;5068651;28;1867;-72
2022/05/09 14:32:49;;;;;;;;;;;;;;;;;;5069560;28;1914;-72
2022/05/09 14:35:34;;;;;;;;;;;;;;;;;;5070633;28;1302;-71
2022/05/09 14:38:01;;;;;;;;;;;;;;;;;;5076284;28;1501;-72
2022/05/09 14:40:28;;;;;;;;;;;;;;;;;;5075736;28;1083;-72
2022/05/09 14:42:56;;;;;;;;;;;;;;;;;;5069156;28;1782;-71
2022/05/09 14:45:24;;;;;;;;;;;;;;;;;;5057363;28;1341;-72
2022/05/09 14:47:53;;;;;;;;;;;;;;;;;;5052011;28;1561;-72
2022/05/09 14:50:20;;;;;;;;;;;;;;;;;;5062613;28;1609;-72
2022/05/09 14:52:52;;;;;;;;;;;;;;;;;;5060283;28;1910;-73
2022/05/09 14:58:06;;;;;;;;;;;;;;;;;;5033335;28;1231;-72
2022/05/09 15:00:35;;;;;;;;;;;;;;;;;;5063827;28;1416;-73
2022/05/09 15:03:04;;;;;;;;;;;;;;;;;;5065468;28;1568;-72
2022/05/09 15:05:31;;;;;;;;;;;;;;;;;;5061866;28;1774;-71
2022/05/09 15:07:58;;;;;;;;;;;;;;;;;;5068744;28;1221;-72
2022/05/09 15:10:25;;;;;;;;;;;;;;;;;;5068416;28;1747;-72
2022/05/09 15:12:51;;;;;;;;;;;;;;;;;;5061570;28;1938;-72
2022/05/09 15:15:17;;;;;;;;;;;;;;;;;;5057844;28;1427;-71
2022/05/09 15:17:44;;;;;;;;;;;;;;;;;;5056265;28;1169;-71
2022/05/09 15:20:12;;;;;;;;;;;;;;;;;;5056858;28;1211;-71
2022/05/09 15:22:38;;;;;;;;;;;;;;;;;;5065224;28;1154;-72
2022/05/09 15:25:04;;;;;;;;;;;;;;;;;;5063489;28;1442;-72
2022/05/09 15:27:31;;;;;;;;;;;;;;;;;;5060914;28;952;-72
2022/05/09 15:29:57;;;;;;;;;;;;;;;;;;5056169;28;1553;-73
2022/05/09 15:32:23;;;;;;;;;;;;;;;;;;5049536;28;1915;-73
2022/05/09 15:34:50;;;;;;;;;;;;;;;;;;5054431;28;1486;-72
2022/05/09 15:37:17;;;;;;;;;;;;;;;;;;5060396;28;1441;-71
2022/05/09 15:39:44;;;;;;;;;;;;;;;;;;5059258;28;1564;-72
2022/05/09 15:42:11;;;;;;;;;;;;;;;;;;5056457;28;1214;-72
2022/05/09 15:44:38;;;;;;;;;;;;;;;;;;5062339;28;2145;-72
2022/05/09 15:47:06;;;;;;;;;;;;;;;;;;5061516;28;1391;-72
2022/05/09 15:49:32;;;;;;;;;;;;;;;;;;5061491;28;1114;-76
2022/05/09 15:51:59;;;;;;;;;;;;;;;;;;5054454;28;1142;-73
2022/05/09 15:54:26;;;;;;;;;;;;;;;;;;5054371;28;1922;-72
2022/05/09 15:56:52;;;;;;;;;;;;;;;;;;5064937;28;1679;-72
2022/05/09 15:59:21;;;;;;;;;;;;;;;;;;5053716;28;1895;-72
2022/05/09 16:01:47;;;;;;;;;;;;;;;;;;5066056;28;1619;-72
2022/05/09 16:04:13;;;;;;;;;;;;;;;;;;5060678;28;1524;-73
2022/05/09 16:12:09;;;;;;;;;;;;;;;;;;5010730;28;1106;-73
2022/05/09 16:14:37;;;;;;;;;;;;;;;;;;5010453;28;1982;-72
2022/05/09 16:17:03;;;;;;;;;;;;;;;;;;5010445;28;1075;-72
2022/05/09 16:19:32;;;;;;;;;;;;;;;;;;5010737;28;1373;-72
2022/05/09 16:21:59;;;;;;;;;;;;;;;;;;5010736;28;934;-73
2022/05/09 16:24:25;;;;;;;;;;;;;;;;;;5009875;28;1485;-73
2022/05/09 16:26:52;;;;;;;;;;;;;;;;;;5010661;28;1543;-73
2022/05/09 16:29:20;;;;;;;;;;;;;;;;;;5014499;28;1374;-73
2022/05/09 16:31:47;;;;;;;;;;;;;;;;;;5015028;28;977;-72
2022/05/09 16:34:14;;;;;;;;;;;;;;;;;;5010857;28;1918;-72
2022/05/09 16:36:41;;;;;;;;;;;;;;;;;;5009193;28;1385;-72
2022/05/09 16:39:07;;;;;;;;;;;;;;;;;;5008954;28;1464;-72
2022/05/09 16:41:33;;;;;;;;;;;;;;;;;;5004865;28;1333;-71
2022/05/09 16:44:00;;;;;;;;;;;;;;;;;;5008199;28;1372;-72
2022/05/09 16:46:28;;;;;;;;;;;;;;;;;;5005571;28;1257;-71
2022/05/09 16:48:54;;;;;;;;;;;;;;;;;;5011066;28;1424;-72
2022/05/09 16:51:21;;;;;;;;;;;;;;;;;;5004821;28;1408;-72
2022/05/09 16:53:47;;;;;;;;;;;;;;;;;;5005660;28;1918;-73
2022/05/09 16:56:13;;;;;;;;;;;;;;;;;;5001380;28;1279;-72
2022/05/09 16:58:48;;;;;;;;;;;;;;;;;;5001713;28;1531;-72
2022/05/09 17:01:14;;;;;;;;;;;;;;;;;;5004864;28;1452;-71
2022/05/09 17:03:42;;;;;;;;;;;;;;;;;;5008674;28;1533;-72
2022/05/09 17:06:08;;;;;;;;;;;;;;;;;;5004370;28;1438;-71
2022/05/09 17:08:34;;;;;;;;;;;;;;;;;;5002570;28;1591;-70
2022/05/09 17:11:01;;;;;;;;;;;;;;;;;;4990381;28;1134;-71
2022/05/09 17:13:27;;;;;;;;;;;;;;;;;;4991903;28;1911;-70
2022/05/09 17:15:53;;;;;;;;;;;;;;;;;;4991768;28;1112;-71
2022/05/09 17:18:20;;;;;;;;;;;;;;;;;;5004698;28;1467;-71
2022/05/09 17:20:47;;;;;;;;;;;;;;;;;;5002538;28;1432;-70
2022/05/09 17:23:13;;;;;;;;;;;;;;;;;;5009954;28;1449;-71
2022/05/09 17:25:41;;;;;;;;;;;;;;;;;;5006088;28;1413;-72
2022/05/09 17:28:07;;;;;;;;;;;;;;;;;;5002943;28;1123;-72
2022/05/09 17:30:34;;;;;;;;;;;;;;;;;;5011915;28;1329;-70
2022/05/09 17:33:01;;;;;;;;;;;;;;;;;;5007470;28;1981;-71
2022/05/09 17:38:12;;;;;;;;;;;;;;;;;;5008748;28;1424;-71
2022/05/09 17:40:39;;;;;;;;;;;;;;;;;;5002204;28;1448;-71